sensor_id;sensor_type;location;lat;lon;timestamp;P1;durP1;ratioP1;P2;durP2;ratioP2
84345;SDS011;74709;53.128;18.020;2024-03-23T00:53:15;8.70;;;3.40;;
84345;SDS011;74709;53.128;18.020;2024-03-23T00:54:17;12.10;;;3.60;;
84345;SDS011;74709;53.128;18.020;2024-03-23T00:55:20;13.50;;;3.40;;
84345;SDS011;74709;53.128;18.020;2024-03-23T00:56:22;14.60;;;4.20;;
84345;SDS011;74709;53.128;18.020;2024-03-23T00:57:26;11.10;;;3.20;;
84345;SDS011;74709;53.128;18.020;2024-03-23T00:58:29;13.30;;;3.10;;
84345;SDS011;74709;53.128;18.020;2024-03-23T00:59:31;12.10;;;3.60;;
84345;SDS011;74709;53.128;18.020;2024-03-23T01:00:34;9.80;;;2.90;;
84345;SDS011;74709;53.128;18.020;2024-03-23T01:01:36;12.90;;;3.90;;
84345;SDS011;74709;53.128;18.020;2024-03-23T01:02:39;13.00;;;4.10;;
84345;SDS011;74709;53.128;18.020;2024-03-23T01:03:42;10.90;;;3.70;;
84345;SDS011;74709;53.128;18.020;2024-03-23T01:04:44;13.40;;;3.80;;
84345;SDS011;74709;53.128;18.020;2024-03-23T01:05:47;15.10;;;4.00;;
84345;SDS011;74709;53.128;18.020;2024-03-23T01:06:50;10.00;;;3.50;;
84345;SDS011;74709;53.128;18.020;2024-03-23T01:07:53;11.00;;;2.80;;
84345;SDS011;74709;53.128;18.020;2024-03-23T01:08:56;8.40;;;4.30;;
84345;SDS011;74709;53.128;18.020;2024-03-23T01:09:58;15.40;;;3.80;;
84345;SDS011;74709;53.128;18.020;2024-03-23T01:11:01;20.80;;;4.80;;
84345;SDS011;74709;53.128;18.020;2024-03-23T01:12:05;11.20;;;3.70;;
84345;SDS011;74709;53.128;18.020;2024-03-23T01:13:08;11.40;;;3.20;;
84345;SDS011;74709;53.128;18.020;2024-03-23T01:14:10;12.30;;;3.80;;
84345;SDS011;74709;53.128;18.020;2024-03-23T01:15:13;9.50;;;3.70;;
84345;SDS011;74709;53.128;18.020;2024-03-23T01:16:15;13.80;;;4.10;;
84345;SDS011;74709;53.128;18.020;2024-03-23T01:17:18;14.70;;;3.80;;
84345;SDS011;74709;53.128;18.020;2024-03-23T01:18:21;8.20;;;4.00;;
84345;SDS011;74709;53.128;18.020;2024-03-23T01:19:24;13.10;;;3.50;;
84345;SDS011;74709;53.128;18.020;2024-03-23T01:20:27;8.00;;;3.90;;
84345;SDS011;74709;53.128;18.020;2024-03-23T01:21:30;15.00;;;3.90;;
84345;SDS011;74709;53.128;18.020;2024-03-23T01:22:32;15.70;;;3.90;;
84345;SDS011;74709;53.128;18.020;2024-03-23T01:23:35;16.20;;;4.70;;
84345;SDS011;74709;53.128;18.020;2024-03-23T01:24:38;10.80;;;3.70;;
84345;SDS011;74709;53.128;18.020;2024-03-23T01:25:40;12.70;;;4.10;;
84345;SDS011;74709;53.128;18.020;2024-03-23T01:26:43;9.90;;;3.80;;
84345;SDS011;74709;53.128;18.020;2024-03-23T01:27:46;12.30;;;4.20;;
84345;SDS011;74709;53.128;18.020;2024-03-23T01:28:48;18.40;;;4.20;;
84345;SDS011;74709;53.128;18.020;2024-03-23T01:29:51;16.20;;;4.50;;
84345;SDS011;74709;53.128;18.020;2024-03-23T01:30:54;12.90;;;3.80;;
84345;SDS011;74709;53.128;18.020;2024-03-23T01:31:57;15.80;;;3.80;;
84345;SDS011;74709;53.128;18.020;2024-03-23T01:33:00;10.00;;;4.00;;
84345;SDS011;74709;53.128;18.020;2024-03-23T01:34:02;12.70;;;4.30;;
84345;SDS011;74709;53.128;18.020;2024-03-23T01:35:05;15.50;;;6.00;;
84345;SDS011;74709;53.128;18.020;2024-03-23T01:36:08;14.40;;;4.70;;
84345;SDS011;74709;53.128;18.020;2024-03-23T01:37:10;15.30;;;5.00;;
84345;SDS011;74709;53.128;18.020;2024-03-23T01:38:13;11.40;;;3.90;;
84345;SDS011;74709;53.128;18.020;2024-03-23T01:39:15;14.20;;;4.60;;
84345;SDS011;74709;53.128;18.020;2024-03-23T01:40:19;11.00;;;3.80;;
84345;SDS011;74709;53.128;18.020;2024-03-23T01:41:21;12.20;;;3.60;;
84345;SDS011;74709;53.128;18.020;2024-03-23T01:42:24;14.10;;;4.00;;
84345;SDS011;74709;53.128;18.020;2024-03-23T01:43:26;9.50;;;3.20;;
84345;SDS011;74709;53.128;18.020;2024-03-23T01:44:29;12.20;;;4.20;;
84345;SDS011;74709;53.128;18.020;2024-03-23T01:45:31;12.80;;;3.80;;
84345;SDS011;74709;53.128;18.020;2024-03-23T01:46:37;7.80;;;3.50;;
84345;SDS011;74709;53.128;18.020;2024-03-23T01:47:40;9.70;;;4.20;;
84345;SDS011;74709;53.128;18.020;2024-03-23T01:48:43;13.00;;;3.40;;
84345;SDS011;74709;53.128;18.020;2024-03-23T01:49:45;10.50;;;3.60;;
84345;SDS011;74709;53.128;18.020;2024-03-23T01:50:48;8.60;;;3.00;;
84345;SDS011;74709;53.128;18.020;2024-03-23T01:51:50;9.80;;;3.70;;
84345;SDS011;74709;53.128;18.020;2024-03-23T01:52:53;8.30;;;3.40;;
84345;SDS011;74709;53.128;18.020;2024-03-23T01:53:56;9.10;;;3.70;;
84345;SDS011;74709;53.128;18.020;2024-03-23T01:54:58;10.20;;;3.50;;
84345;SDS011;74709;53.128;18.020;2024-03-23T01:56:01;13.10;;;4.00;;
84345;SDS011;74709;53.128;18.020;2024-03-23T01:57:04;10.10;;;3.60;;
84345;SDS011;74709;53.128;18.020;2024-03-23T01:58:07;8.60;;;3.10;;
84345;SDS011;74709;53.128;18.020;2024-03-23T01:59:10;12.60;;;3.50;;
84345;SDS011;74709;53.128;18.020;2024-03-23T02:00:13;11.30;;;4.10;;
84345;SDS011;74709;53.128;18.020;2024-03-23T02:01:16;17.00;;;5.20;;
84345;SDS011;74709;53.128;18.020;2024-03-23T02:02:19;15.70;;;4.10;;
84345;SDS011;74709;53.128;18.020;2024-03-23T02:03:25;10.00;;;4.00;;
84345;SDS011;74709;53.128;18.020;2024-03-23T02:04:29;11.00;;;5.20;;
84345;SDS011;74709;53.128;18.020;2024-03-23T02:05:31;12.80;;;3.80;;
84345;SDS011;74709;53.128;18.020;2024-03-23T02:06:34;7.90;;;3.60;;
84345;SDS011;74709;53.128;18.020;2024-03-23T02:07:37;14.50;;;3.80;;
84345;SDS011;74709;53.128;18.020;2024-03-23T02:08:43;15.10;;;4.60;;
84345;SDS011;74709;53.128;18.020;2024-03-23T02:09:46;13.50;;;4.80;;
84345;SDS011;74709;53.128;18.020;2024-03-23T02:10:49;10.90;;;3.80;;
84345;SDS011;74709;53.128;18.020;2024-03-23T02:11:52;8.70;;;3.80;;
84345;SDS011;74709;53.128;18.020;2024-03-23T02:12:55;16.10;;;4.40;;
84345;SDS011;74709;53.128;18.020;2024-03-23T02:13:57;19.90;;;5.50;;
84345;SDS011;74709;53.128;18.020;2024-03-23T02:15:00;11.90;;;4.40;;
84345;SDS011;74709;53.128;18.020;2024-03-23T02:16:04;14.30;;;4.80;;
84345;SDS011;74709;53.128;18.020;2024-03-23T02:17:08;25.60;;;7.60;;
84345;SDS011;74709;53.128;18.020;2024-03-23T02:18:11;17.30;;;5.00;;
84345;SDS011;74709;53.128;18.020;2024-03-23T02:19:13;12.90;;;4.10;;
84345;SDS011;74709;53.128;18.020;2024-03-23T02:20:16;18.60;;;5.90;;
84345;SDS011;74709;53.128;18.020;2024-03-23T02:21:18;14.60;;;5.60;;
84345;SDS011;74709;53.128;18.020;2024-03-23T02:22:21;19.40;;;6.20;;
84345;SDS011;74709;53.128;18.020;2024-03-23T02:23:24;16.40;;;6.50;;
84345;SDS011;74709;53.128;18.020;2024-03-23T02:24:29;13.00;;;6.00;;
84345;SDS011;74709;53.128;18.020;2024-03-23T02:25:32;20.70;;;6.70;;
84345;SDS011;74709;53.128;18.020;2024-03-23T02:26:35;14.10;;;5.80;;
84345;SDS011;74709;53.128;18.020;2024-03-23T02:27:38;12.20;;;5.20;;
84345;SDS011;74709;53.128;18.020;2024-03-23T02:28:42;15.80;;;6.00;;
84345;SDS011;74709;53.128;18.020;2024-03-23T02:29:45;13.40;;;6.30;;
84345;SDS011;74709;53.128;18.020;2024-03-23T02:30:48;13.00;;;5.50;;
84345;SDS011;74709;53.128;18.020;2024-03-23T02:31:52;14.30;;;6.10;;
84345;SDS011;74709;53.128;18.020;2024-03-23T02:32:54;15.40;;;6.30;;
84345;SDS011;74709;53.128;18.020;2024-03-23T02:33:57;18.00;;;7.90;;
84345;SDS011;74709;53.128;18.020;2024-03-23T02:35:00;19.00;;;8.50;;
84345;SDS011;74709;53.128;18.020;2024-03-23T02:36:02;18.90;;;8.40;;
84345;SDS011;74709;53.128;18.020;2024-03-23T02:37:10;15.40;;;6.00;;
84345;SDS011;74709;53.128;18.020;2024-03-23T02:38:15;15.70;;;5.40;;
84345;SDS011;74709;53.128;18.020;2024-03-23T02:39:18;11.80;;;6.10;;
84345;SDS011;74709;53.128;18.020;2024-03-23T02:40:20;15.00;;;4.90;;
84345;SDS011;74709;53.128;18.020;2024-03-23T02:41:23;15.00;;;5.40;;
84345;SDS011;74709;53.128;18.020;2024-03-23T02:42:26;20.50;;;5.70;;
84345;SDS011;74709;53.128;18.020;2024-03-23T02:43:28;16.10;;;5.30;;
84345;SDS011;74709;53.128;18.020;2024-03-23T02:44:31;14.70;;;5.00;;
84345;SDS011;74709;53.128;18.020;2024-03-23T02:45:33;13.30;;;5.50;;
84345;SDS011;74709;53.128;18.020;2024-03-23T02:46:36;15.50;;;6.50;;
84345;SDS011;74709;53.128;18.020;2024-03-23T02:47:38;15.10;;;5.10;;
84345;SDS011;74709;53.128;18.020;2024-03-23T02:48:41;12.80;;;5.10;;
84345;SDS011;74709;53.128;18.020;2024-03-23T02:49:44;15.30;;;4.70;;
84345;SDS011;74709;53.128;18.020;2024-03-23T02:50:46;14.30;;;4.20;;
84345;SDS011;74709;53.128;18.020;2024-03-23T02:51:49;15.80;;;5.60;;
84345;SDS011;74709;53.128;18.020;2024-03-23T02:53:55;14.60;;;3.90;;
84345;SDS011;74709;53.128;18.020;2024-03-23T02:54:58;15.70;;;5.00;;
84345;SDS011;74709;53.128;18.020;2024-03-23T02:56:01;16.90;;;4.20;;
84345;SDS011;74709;53.128;18.020;2024-03-23T02:57:03;12.50;;;3.80;;
84345;SDS011;74709;53.128;18.020;2024-03-23T02:58:07;12.30;;;3.60;;
84345;SDS011;74709;53.128;18.020;2024-03-23T02:59:09;15.50;;;4.50;;
84345;SDS011;74709;53.128;18.020;2024-03-23T03:00:12;14.90;;;4.10;;
84345;SDS011;74709;53.128;18.020;2024-03-23T03:01:15;14.70;;;4.90;;
84345;SDS011;74709;53.128;18.020;2024-03-23T03:02:17;15.20;;;3.90;;
84345;SDS011;74709;53.128;18.020;2024-03-23T03:03:20;11.70;;;4.40;;
84345;SDS011;74709;53.128;18.020;2024-03-23T03:04:23;12.30;;;4.00;;
84345;SDS011;74709;53.128;18.020;2024-03-23T03:05:25;10.20;;;3.80;;
84345;SDS011;74709;53.128;18.020;2024-03-23T03:06:29;12.00;;;3.60;;
84345;SDS011;74709;53.128;18.020;2024-03-23T03:07:32;12.70;;;3.60;;
84345;SDS011;74709;53.128;18.020;2024-03-23T03:08:35;17.30;;;4.70;;
84345;SDS011;74709;53.128;18.020;2024-03-23T03:09:38;14.10;;;4.40;;
84345;SDS011;74709;53.128;18.020;2024-03-23T03:10:41;16.40;;;3.50;;
84345;SDS011;74709;53.128;18.020;2024-03-23T03:11:44;14.40;;;4.00;;
84345;SDS011;74709;53.128;18.020;2024-03-23T03:12:46;12.60;;;3.70;;
84345;SDS011;74709;53.128;18.020;2024-03-23T03:13:49;12.70;;;4.10;;
84345;SDS011;74709;53.128;18.020;2024-03-23T03:14:51;8.40;;;4.60;;
84345;SDS011;74709;53.128;18.020;2024-03-23T03:15:54;13.40;;;3.80;;
84345;SDS011;74709;53.128;18.020;2024-03-23T03:16:57;11.80;;;4.30;;
84345;SDS011;74709;53.128;18.020;2024-03-23T03:17:59;10.20;;;4.00;;
84345;SDS011;74709;53.128;18.020;2024-03-23T03:19:02;11.20;;;4.90;;
84345;SDS011;74709;53.128;18.020;2024-03-23T03:20:06;13.50;;;4.00;;
84345;SDS011;74709;53.128;18.020;2024-03-23T03:21:09;11.20;;;3.30;;
84345;SDS011;74709;53.128;18.020;2024-03-23T03:22:15;13.10;;;3.40;;
84345;SDS011;74709;53.128;18.020;2024-03-23T03:23:18;7.20;;;3.00;;
84345;SDS011;74709;53.128;18.020;2024-03-23T03:24:21;10.10;;;4.60;;
84345;SDS011;74709;53.128;18.020;2024-03-23T03:25:24;10.00;;;3.50;;
84345;SDS011;74709;53.128;18.020;2024-03-23T03:26:26;12.80;;;4.70;;
84345;SDS011;74709;53.128;18.020;2024-03-23T03:27:29;16.10;;;4.30;;
84345;SDS011;74709;53.128;18.020;2024-03-23T03:28:32;11.80;;;4.10;;
84345;SDS011;74709;53.128;18.020;2024-03-23T03:29:35;11.10;;;4.00;;
84345;SDS011;74709;53.128;18.020;2024-03-23T03:30:38;14.90;;;4.60;;
84345;SDS011;74709;53.128;18.020;2024-03-23T03:31:40;12.40;;;4.00;;
84345;SDS011;74709;53.128;18.020;2024-03-23T03:32:43;14.40;;;4.00;;
84345;SDS011;74709;53.128;18.020;2024-03-23T03:33:45;16.10;;;4.20;;
84345;SDS011;74709;53.128;18.020;2024-03-23T03:34:48;12.00;;;4.70;;
84345;SDS011;74709;53.128;18.020;2024-03-23T03:35:52;14.20;;;4.00;;
84345;SDS011;74709;53.128;18.020;2024-03-23T03:36:55;14.40;;;3.20;;
84345;SDS011;74709;53.128;18.020;2024-03-23T03:37:58;12.90;;;3.20;;
84345;SDS011;74709;53.128;18.020;2024-03-23T03:39:01;12.10;;;3.00;;
84345;SDS011;74709;53.128;18.020;2024-03-23T03:40:06;15.40;;;3.60;;
84345;SDS011;74709;53.128;18.020;2024-03-23T03:41:11;10.80;;;3.30;;
84345;SDS011;74709;53.128;18.020;2024-03-23T03:42:14;12.30;;;5.90;;
84345;SDS011;74709;53.128;18.020;2024-03-23T03:43:17;14.90;;;4.90;;
84345;SDS011;74709;53.128;18.020;2024-03-23T03:44:19;16.80;;;5.60;;
84345;SDS011;74709;53.128;18.020;2024-03-23T03:45:22;11.30;;;5.40;;
84345;SDS011;74709;53.128;18.020;2024-03-23T03:46:24;12.10;;;4.20;;
84345;SDS011;74709;53.128;18.020;2024-03-23T03:47:27;14.60;;;4.70;;
84345;SDS011;74709;53.128;18.020;2024-03-23T03:48:31;10.90;;;3.80;;
84345;SDS011;74709;53.128;18.020;2024-03-23T03:49:34;15.00;;;3.70;;
84345;SDS011;74709;53.128;18.020;2024-03-23T03:50:36;14.90;;;4.10;;
84345;SDS011;74709;53.128;18.020;2024-03-23T03:51:39;13.60;;;5.30;;
84345;SDS011;74709;53.128;18.020;2024-03-23T03:52:41;11.10;;;3.40;;
84345;SDS011;74709;53.128;18.020;2024-03-23T03:53:44;10.90;;;4.20;;
84345;SDS011;74709;53.128;18.020;2024-03-23T03:54:47;12.50;;;4.80;;
84345;SDS011;74709;53.128;18.020;2024-03-23T03:55:50;13.90;;;3.80;;
84345;SDS011;74709;53.128;18.020;2024-03-23T03:56:52;11.80;;;3.80;;
84345;SDS011;74709;53.128;18.020;2024-03-23T03:57:55;13.30;;;4.60;;
84345;SDS011;74709;53.128;18.020;2024-03-23T03:58:58;10.80;;;3.80;;
84345;SDS011;74709;53.128;18.020;2024-03-23T04:00:00;10.70;;;3.70;;
84345;SDS011;74709;53.128;18.020;2024-03-23T04:01:03;14.60;;;4.30;;
84345;SDS011;74709;53.128;18.020;2024-03-23T04:02:05;13.20;;;4.70;;
84345;SDS011;74709;53.128;18.020;2024-03-23T04:03:08;13.70;;;4.10;;
84345;SDS011;74709;53.128;18.020;2024-03-23T04:04:11;18.20;;;4.30;;
84345;SDS011;74709;53.128;18.020;2024-03-23T04:05:13;13.70;;;5.50;;
84345;SDS011;74709;53.128;18.020;2024-03-23T04:06:19;17.20;;;6.30;;
84345;SDS011;74709;53.128;18.020;2024-03-23T04:07:22;16.00;;;5.30;;
84345;SDS011;74709;53.128;18.020;2024-03-23T04:08:25;14.00;;;4.80;;
84345;SDS011;74709;53.128;18.020;2024-03-23T04:09:27;15.70;;;5.40;;
84345;SDS011;74709;53.128;18.020;2024-03-23T04:10:30;12.40;;;5.60;;
84345;SDS011;74709;53.128;18.020;2024-03-23T04:11:33;12.90;;;4.70;;
84345;SDS011;74709;53.128;18.020;2024-03-23T04:12:35;13.60;;;5.10;;
84345;SDS011;74709;53.128;18.020;2024-03-23T04:13:38;13.20;;;4.90;;
84345;SDS011;74709;53.128;18.020;2024-03-23T04:14:40;13.80;;;5.40;;
84345;SDS011;74709;53.128;18.020;2024-03-23T04:15:43;11.50;;;4.40;;
84345;SDS011;74709;53.128;18.020;2024-03-23T04:16:45;17.10;;;4.30;;
84345;SDS011;74709;53.128;18.020;2024-03-23T04:17:48;22.20;;;4.70;;
84345;SDS011;74709;53.128;18.020;2024-03-23T04:18:50;15.00;;;4.30;;
84345;SDS011;74709;53.128;18.020;2024-03-23T04:19:53;13.90;;;4.50;;
84345;SDS011;74709;53.128;18.020;2024-03-23T04:20:56;19.90;;;5.20;;
84345;SDS011;74709;53.128;18.020;2024-03-23T04:21:59;16.80;;;4.50;;
84345;SDS011;74709;53.128;18.020;2024-03-23T04:23:01;15.50;;;5.50;;
84345;SDS011;74709;53.128;18.020;2024-03-23T04:24:04;19.40;;;5.50;;
84345;SDS011;74709;53.128;18.020;2024-03-23T04:25:07;14.70;;;4.80;;
84345;SDS011;74709;53.128;18.020;2024-03-23T04:26:10;10.30;;;4.80;;
84345;SDS011;74709;53.128;18.020;2024-03-23T04:27:12;13.60;;;4.00;;
84345;SDS011;74709;53.128;18.020;2024-03-23T04:28:15;9.30;;;3.70;;
84345;SDS011;74709;53.128;18.020;2024-03-23T04:29:17;9.60;;;3.80;;
84345;SDS011;74709;53.128;18.020;2024-03-23T04:30:20;14.10;;;4.50;;
84345;SDS011;74709;53.128;18.020;2024-03-23T04:31:23;11.80;;;3.90;;
84345;SDS011;74709;53.128;18.020;2024-03-23T04:32:26;11.80;;;4.70;;
84345;SDS011;74709;53.128;18.020;2024-03-23T04:33:28;16.50;;;5.20;;
84345;SDS011;74709;53.128;18.020;2024-03-23T04:34:31;15.30;;;3.80;;
84345;SDS011;74709;53.128;18.020;2024-03-23T04:35:35;14.10;;;4.30;;
84345;SDS011;74709;53.128;18.020;2024-03-23T04:36:37;15.40;;;4.10;;
84345;SDS011;74709;53.128;18.020;2024-03-23T04:37:40;12.40;;;4.00;;
84345;SDS011;74709;53.128;18.020;2024-03-23T04:38:43;17.00;;;4.60;;
84345;SDS011;74709;53.128;18.020;2024-03-23T04:39:45;12.40;;;3.30;;
84345;SDS011;74709;53.128;18.020;2024-03-23T04:40:58;13.90;;;4.20;;
84345;SDS011;74709;53.128;18.020;2024-03-23T04:42:01;13.40;;;3.50;;
84345;SDS011;74709;53.128;18.020;2024-03-23T04:43:05;15.90;;;5.60;;
84345;SDS011;74709;53.128;18.020;2024-03-23T04:44:07;11.20;;;3.30;;
84345;SDS011;74709;53.128;18.020;2024-03-23T04:45:10;10.90;;;3.30;;
84345;SDS011;74709;53.128;18.020;2024-03-23T04:46:13;12.20;;;4.20;;
84345;SDS011;74709;53.128;18.020;2024-03-23T04:47:16;12.80;;;3.90;;
84345;SDS011;74709;53.128;18.020;2024-03-23T04:48:20;18.70;;;5.00;;
84345;SDS011;74709;53.128;18.020;2024-03-23T04:49:24;14.10;;;4.70;;
84345;SDS011;74709;53.128;18.020;2024-03-23T04:50:27;15.10;;;3.80;;
84345;SDS011;74709;53.128;18.020;2024-03-23T04:51:34;14.40;;;3.70;;
84345;SDS011;74709;53.128;18.020;2024-03-23T04:52:39;14.40;;;4.30;;
84345;SDS011;74709;53.128;18.020;2024-03-23T04:53:41;15.90;;;5.20;;
84345;SDS011;74709;53.128;18.020;2024-03-23T04:54:44;15.50;;;4.60;;
84345;SDS011;74709;53.128;18.020;2024-03-23T04:55:47;14.10;;;4.40;;
84345;SDS011;74709;53.128;18.020;2024-03-23T04:56:50;12.80;;;3.50;;
84345;SDS011;74709;53.128;18.020;2024-03-23T04:57:52;16.70;;;5.10;;
84345;SDS011;74709;53.128;18.020;2024-03-23T04:58:55;11.20;;;4.60;;
84345;SDS011;74709;53.128;18.020;2024-03-23T05:00:03;16.90;;;4.80;;
84345;SDS011;74709;53.128;18.020;2024-03-23T05:01:15;14.50;;;4.30;;
84345;SDS011;74709;53.128;18.020;2024-03-23T05:02:19;10.70;;;3.30;;
84345;SDS011;74709;53.128;18.020;2024-03-23T05:03:21;11.00;;;3.80;;
84345;SDS011;74709;53.128;18.020;2024-03-23T05:04:24;12.70;;;4.60;;
84345;SDS011;74709;53.128;18.020;2024-03-23T05:05:26;9.30;;;3.60;;
84345;SDS011;74709;53.128;18.020;2024-03-23T05:06:29;16.80;;;3.10;;
84345;SDS011;74709;53.128;18.020;2024-03-23T05:07:32;10.40;;;3.60;;
84345;SDS011;74709;53.128;18.020;2024-03-23T05:08:34;11.00;;;4.30;;
84345;SDS011;74709;53.128;18.020;2024-03-23T05:09:37;11.40;;;3.70;;
84345;SDS011;74709;53.128;18.020;2024-03-23T05:10:39;8.80;;;3.00;;
84345;SDS011;74709;53.128;18.020;2024-03-23T05:12:45;15.00;;;5.50;;
84345;SDS011;74709;53.128;18.020;2024-03-23T05:13:48;12.70;;;3.30;;
84345;SDS011;74709;53.128;18.020;2024-03-23T05:14:51;13.10;;;3.70;;
84345;SDS011;74709;53.128;18.020;2024-03-23T05:15:54;15.70;;;3.50;;
84345;SDS011;74709;53.128;18.020;2024-03-23T05:16:56;10.50;;;4.50;;
84345;SDS011;74709;53.128;18.020;2024-03-23T05:17:59;11.90;;;3.30;;
84345;SDS011;74709;53.128;18.020;2024-03-23T05:19:02;14.30;;;4.30;;
84345;SDS011;74709;53.128;18.020;2024-03-23T05:20:05;10.80;;;3.20;;
84345;SDS011;74709;53.128;18.020;2024-03-23T05:21:12;8.00;;;3.00;;
84345;SDS011;74709;53.128;18.020;2024-03-23T05:22:14;12.40;;;3.40;;
84345;SDS011;74709;53.128;18.020;2024-03-23T05:23:17;10.90;;;2.90;;
84345;SDS011;74709;53.128;18.020;2024-03-23T05:24:19;12.10;;;3.60;;
84345;SDS011;74709;53.128;18.020;2024-03-23T05:25:22;15.00;;;3.80;;
84345;SDS011;74709;53.128;18.020;2024-03-23T05:26:25;14.00;;;3.30;;
84345;SDS011;74709;53.128;18.020;2024-03-23T05:27:27;8.90;;;2.90;;
84345;SDS011;74709;53.128;18.020;2024-03-23T05:28:30;14.60;;;2.80;;
84345;SDS011;74709;53.128;18.020;2024-03-23T05:29:32;10.50;;;3.60;;
84345;SDS011;74709;53.128;18.020;2024-03-23T05:30:35;12.20;;;3.80;;
84345;SDS011;74709;53.128;18.020;2024-03-23T05:31:37;11.20;;;3.40;;
84345;SDS011;74709;53.128;18.020;2024-03-23T05:32:40;11.30;;;2.90;;
84345;SDS011;74709;53.128;18.020;2024-03-23T05:33:44;12.20;;;4.80;;
84345;SDS011;74709;53.128;18.020;2024-03-23T05:34:47;10.70;;;3.00;;
84345;SDS011;74709;53.128;18.020;2024-03-23T05:35:56;6.90;;;3.00;;
84345;SDS011;74709;53.128;18.020;2024-03-23T05:37:02;13.10;;;3.40;;
84345;SDS011;74709;53.128;18.020;2024-03-23T05:38:05;10.90;;;3.30;;
84345;SDS011;74709;53.128;18.020;2024-03-23T05:39:08;9.80;;;3.40;;
84345;SDS011;74709;53.128;18.020;2024-03-23T05:40:11;9.50;;;3.00;;
84345;SDS011;74709;53.128;18.020;2024-03-23T05:41:15;12.50;;;3.90;;
84345;SDS011;74709;53.128;18.020;2024-03-23T05:42:17;10.20;;;3.00;;
84345;SDS011;74709;53.128;18.020;2024-03-23T05:43:21;11.00;;;4.00;;
84345;SDS011;74709;53.128;18.020;2024-03-23T05:44:24;12.40;;;3.00;;
84345;SDS011;74709;53.128;18.020;2024-03-23T05:45:27;12.60;;;3.50;;
84345;SDS011;74709;53.128;18.020;2024-03-23T05:46:29;11.80;;;4.00;;
84345;SDS011;74709;53.128;18.020;2024-03-23T05:47:32;12.10;;;3.20;;
84345;SDS011;74709;53.128;18.020;2024-03-23T05:48:34;9.80;;;3.10;;
84345;SDS011;74709;53.128;18.020;2024-03-23T05:49:37;17.10;;;4.10;;
84345;SDS011;74709;53.128;18.020;2024-03-23T05:50:39;12.20;;;3.00;;
84345;SDS011;74709;53.128;18.020;2024-03-23T05:51:42;8.90;;;2.90;;
84345;SDS011;74709;53.128;18.020;2024-03-23T05:52:45;14.30;;;3.60;;
84345;SDS011;74709;53.128;18.020;2024-03-23T05:53:48;6.50;;;2.80;;
84345;SDS011;74709;53.128;18.020;2024-03-23T05:56:00;7.70;;;2.90;;
84345;SDS011;74709;53.128;18.020;2024-03-23T05:57:06;7.10;;;2.40;;
84345;SDS011;74709;53.128;18.020;2024-03-23T05:58:11;8.00;;;3.40;;
84345;SDS011;74709;53.128;18.020;2024-03-23T05:59:14;7.50;;;2.70;;
84345;SDS011;74709;53.128;18.020;2024-03-23T06:00:16;8.10;;;3.80;;
84345;SDS011;74709;53.128;18.020;2024-03-23T06:01:19;11.30;;;3.20;;
84345;SDS011;74709;53.128;18.020;2024-03-23T06:02:22;11.40;;;4.00;;
84345;SDS011;74709;53.128;18.020;2024-03-23T06:03:25;9.90;;;3.20;;
84345;SDS011;74709;53.128;18.020;2024-03-23T06:04:28;9.80;;;3.10;;
84345;SDS011;74709;53.128;18.020;2024-03-23T06:05:30;8.10;;;2.50;;
84345;SDS011;74709;53.128;18.020;2024-03-23T06:06:33;7.60;;;2.60;;
84345;SDS011;74709;53.128;18.020;2024-03-23T06:07:35;9.50;;;2.40;;
84345;SDS011;74709;53.128;18.020;2024-03-23T06:08:38;9.10;;;2.60;;
84345;SDS011;74709;53.128;18.020;2024-03-23T06:09:41;8.60;;;2.50;;
84345;SDS011;74709;53.128;18.020;2024-03-23T06:10:44;6.10;;;2.50;;
84345;SDS011;74709;53.128;18.020;2024-03-23T06:11:48;9.90;;;3.00;;
84345;SDS011;74709;53.128;18.020;2024-03-23T06:12:50;9.50;;;2.40;;
84345;SDS011;74709;53.128;18.020;2024-03-23T06:13:55;10.30;;;3.30;;
84345;SDS011;74709;53.128;18.020;2024-03-23T06:14:58;10.80;;;2.50;;
84345;SDS011;74709;53.128;18.020;2024-03-23T06:16:03;12.10;;;2.90;;
84345;SDS011;74709;53.128;18.020;2024-03-23T06:17:06;7.30;;;2.90;;
84345;SDS011;74709;53.128;18.020;2024-03-23T06:18:09;5.50;;;2.30;;
84345;SDS011;74709;53.128;18.020;2024-03-23T06:19:12;6.80;;;2.50;;
84345;SDS011;74709;53.128;18.020;2024-03-23T06:20:14;13.70;;;3.30;;
84345;SDS011;74709;53.128;18.020;2024-03-23T06:21:17;7.90;;;2.40;;
84345;SDS011;74709;53.128;18.020;2024-03-23T06:22:20;13.70;;;3.60;;
84345;SDS011;74709;53.128;18.020;2024-03-23T06:23:23;9.10;;;2.70;;
84345;SDS011;74709;53.128;18.020;2024-03-23T06:24:25;9.50;;;2.50;;
84345;SDS011;74709;53.128;18.020;2024-03-23T06:25:28;10.10;;;3.00;;
84345;SDS011;74709;53.128;18.020;2024-03-23T06:26:30;14.60;;;4.40;;
84345;SDS011;74709;53.128;18.020;2024-03-23T06:27:33;11.00;;;2.70;;
84345;SDS011;74709;53.128;18.020;2024-03-23T06:28:36;7.60;;;2.80;;
84345;SDS011;74709;53.128;18.020;2024-03-23T06:29:38;6.30;;;2.30;;
84345;SDS011;74709;53.128;18.020;2024-03-23T06:30:41;13.30;;;2.80;;
84345;SDS011;74709;53.128;18.020;2024-03-23T06:31:43;10.20;;;2.80;;
84345;SDS011;74709;53.128;18.020;2024-03-23T06:32:46;6.80;;;2.50;;
84345;SDS011;74709;53.128;18.020;2024-03-23T06:33:48;13.00;;;3.50;;
84345;SDS011;74709;53.128;18.020;2024-03-23T06:34:51;12.60;;;2.70;;
84345;SDS011;74709;53.128;18.020;2024-03-23T06:35:54;7.60;;;2.30;;
84345;SDS011;74709;53.128;18.020;2024-03-23T06:36:56;11.30;;;2.90;;
84345;SDS011;74709;53.128;18.020;2024-03-23T06:37:59;9.00;;;3.00;;
84345;SDS011;74709;53.128;18.020;2024-03-23T06:39:02;7.10;;;3.20;;
84345;SDS011;74709;53.128;18.020;2024-03-23T06:40:05;11.20;;;2.60;;
84345;SDS011;74709;53.128;18.020;2024-03-23T06:41:11;11.60;;;3.00;;
84345;SDS011;74709;53.128;18.020;2024-03-23T06:42:14;12.30;;;3.00;;
84345;SDS011;74709;53.128;18.020;2024-03-23T06:43:17;11.10;;;3.00;;
84345;SDS011;74709;53.128;18.020;2024-03-23T06:44:19;10.00;;;2.60;;
84345;SDS011;74709;53.128;18.020;2024-03-23T06:45:22;7.80;;;2.40;;
84345;SDS011;74709;53.128;18.020;2024-03-23T06:46:26;10.80;;;3.00;;
84345;SDS011;74709;53.128;18.020;2024-03-23T06:47:28;11.80;;;2.10;;
84345;SDS011;74709;53.128;18.020;2024-03-23T06:48:31;8.90;;;2.30;;
84345;SDS011;74709;53.128;18.020;2024-03-23T06:49:33;5.20;;;2.20;;
84345;SDS011;74709;53.128;18.020;2024-03-23T06:50:36;7.20;;;2.20;;
84345;SDS011;74709;53.128;18.020;2024-03-23T06:51:39;10.10;;;2.70;;
84345;SDS011;74709;53.128;18.020;2024-03-23T06:52:41;10.20;;;2.60;;
84345;SDS011;74709;53.128;18.020;2024-03-23T06:53:44;7.90;;;2.80;;
84345;SDS011;74709;53.128;18.020;2024-03-23T06:54:46;10.50;;;2.70;;
84345;SDS011;74709;53.128;18.020;2024-03-23T06:55:50;13.50;;;2.90;;
84345;SDS011;74709;53.128;18.020;2024-03-23T06:56:54;16.10;;;3.30;;
84345;SDS011;74709;53.128;18.020;2024-03-23T06:57:56;14.70;;;3.20;;
84345;SDS011;74709;53.128;18.020;2024-03-23T06:58:59;13.70;;;3.40;;
84345;SDS011;74709;53.128;18.020;2024-03-23T07:00:02;11.00;;;2.80;;
84345;SDS011;74709;53.128;18.020;2024-03-23T07:01:05;8.30;;;2.50;;
84345;SDS011;74709;53.128;18.020;2024-03-23T07:02:08;7.50;;;2.70;;
84345;SDS011;74709;53.128;18.020;2024-03-23T07:03:11;14.80;;;2.60;;
84345;SDS011;74709;53.128;18.020;2024-03-23T07:04:13;13.20;;;2.60;;
84345;SDS011;74709;53.128;18.020;2024-03-23T07:05:16;9.60;;;3.20;;